Time;durP1;ratioP1;P1;durP2;ratioP2;P2;SDS_P1;SDS_P2;PMS_P1;PMS_P2;Temp;Humidity;BMP_temperature;BMP_pressure;BME280_temperature;BME280_humidity;BME280_pressure;Samples;Min_cycle;Max_cycle;Signal;HPM_P1;HPM_P2
2021/12/27 00:02:43;;;;;;;11.33;2.03;;;;;;;-5.13;60.66;101166.41;6024836;29;20217;-76
2021/12/27 00:05:47;;;;;;;2.37;2.17;;;;;;;-4.93;59.99;101168.19;6024434;29;20506;-76
2021/12/27 00:08:52;;;;;;;2.63;2.37;;;;;;;-5.25;60.77;101173.66;6025694;29;20273;-76
2021/12/27 00:11:56;;;;;;;2.33;2.27;;;;;;;-5.20;61.06;101183.97;6025176;29;20258;-76
2021/12/27 00:15:00;;;;;;;2.10;2.10;;;;;;;-5.22;60.83;101173.41;6025330;29;20216;-76
2021/12/27 00:18:07;;;;;;;3.73;2.30;;;;;;;-5.19;60.86;101166.94;6025646;29;20201;-76
2021/12/27 00:21:11;;;;;;;3.37;2.40;;;;;;;-5.28;60.25;101177.47;6024273;29;20201;-76
2021/12/27 00:24:16;;;;;;;2.60;2.40;;;;;;;-5.26;60.25;101183.50;6024160;29;20249;-76
2021/12/27 00:27:21;;;;;;;3.50;2.70;;;;;;;-5.38;60.90;101179.22;6025217;29;20198;-76
2021/12/27 00:30:26;;;;;;;2.50;2.40;;;;;;;-5.37;61.02;101154.19;6023444;29;20505;-76
2021/12/27 00:33:32;;;;;;;2.30;2.20;;;;;;;-5.54;61.72;101173.50;6024239;29;20396;-75
2021/12/27 00:36:37;;;;;;;2.63;2.53;;;;;;;-5.54;61.92;101170.00;6025063;29;20260;-75
2021/12/27 00:39:41;;;;;;;1.70;1.70;;;;;;;-5.33;60.97;101171.66;6025118;29;20195;-76
2021/12/27 00:42:45;;;;;;;3.90;2.07;;;;;;;-5.36;61.41;101177.28;6025499;29;20309;-75
2021/12/27 00:45:50;;;;;;;2.23;2.13;;;;;;;-5.43;61.78;101181.47;6024970;29;20270;-76
2021/12/27 00:48:56;;;;;;;1.97;1.87;;;;;;;-5.31;61.84;101175.03;6024479;29;20423;-76
2021/12/27 00:52:00;;;;;;;2.10;2.10;;;;;;;-5.32;62.19;101173.38;6024009;29;20190;-76
2021/12/27 00:55:05;;;;;;;2.33;2.20;;;;;;;-5.36;62.47;101166.56;6024004;29;20497;-76
2021/12/27 00:58:12;;;;;;;1.63;1.63;;;;;;;-5.44;62.38;101174.41;6024021;29;20574;-76
2021/12/27 01:01:16;;;;;;;4.00;2.10;;;;;;;-5.39;63.30;101172.16;6024867;29;20267;-76
2021/12/27 01:04:22;;;;;;;1.67;1.67;;;;;;;-5.25;62.23;101171.00;6024813;29;20220;-76
2021/12/27 01:07:26;;;;;;;4.53;2.10;;;;;;;-5.39;63.39;101182.88;6025111;29;20206;-76
2021/12/27 01:10:59;;;;;;;2.30;2.20;;;;;;;-5.29;62.77;101182.97;6024512;29;20475;-76
2021/12/27 01:14:10;;;;;;;2.17;1.73;;;;;;;-5.31;63.23;101180.38;6024866;29;20250;-76
2021/12/27 01:17:15;;;;;;;2.00;2.00;;;;;;;-5.27;62.75;101186.34;6025058;29;20220;-76
2021/12/27 01:20:23;;;;;;;2.93;2.17;;;;;;;-5.73;63.43;101181.41;6024210;29;20236;-75
2021/12/27 01:23:27;;;;;;;2.60;2.40;;;;;;;-5.60;63.53;101189.25;6029111;29;20196;-76
2021/12/27 01:26:32;;;;;;;2.60;2.40;;;;;;;-5.57;62.97;101183.63;6029192;29;20194;-75
2021/12/27 01:29:36;;;;;;;2.20;2.10;;;;;;;-5.38;62.38;101184.59;6028862;29;20195;-76
2021/12/27 01:32:46;;;;;;;2.67;2.40;;;;;;;-5.62;63.47;101186.72;6028185;29;20194;-76
2021/12/27 01:35:53;;;;;;;2.23;2.13;;;;;;;-5.68;64.00;101186.34;6027677;29;20266;-76
2021/12/27 01:38:57;;;;;;;2.10;2.00;;;;;;;-5.63;63.45;101174.28;6028956;29;20195;-76
2021/12/27 01:42:01;;;;;;;2.50;2.40;;;;;;;-5.66;64.08;101190.59;6028853;29;20278;-76
2021/12/27 01:45:09;;;;;;;3.60;2.00;;;;;;;-5.61;63.76;101177.69;6028418;29;20222;-76
2021/12/27 01:48:20;;;;;;;2.07;1.97;;;;;;;-5.59;64.40;101180.25;6027457;29;20386;-76
2021/12/27 01:51:31;;;;;;;1.80;1.80;;;;;;;-5.58;64.34;101181.91;6028352;29;20196;-76
2021/12/27 01:54:35;;;;;;;1.90;1.80;;;;;;;-5.66;64.48;101189.75;6028419;29;20196;-76
2021/12/27 01:57:39;;;;;;;1.97;1.70;;;;;;;-5.42;64.92;101185.84;6027184;29;20541;-76
2021/12/27 02:00:50;;;;;;;1.93;1.83;;;;;;;-5.48;64.46;101194.38;6027841;29;20200;-76
2021/12/27 02:03:56;;;;;;;2.50;2.03;;;;;;;-5.44;63.56;101195.81;6027920;29;20202;-76
2021/12/27 02:07:01;;;;;;;2.40;2.30;;;;;;;-5.60;64.46;101200.78;6027134;29;20494;-76
2021/12/27 02:10:09;;;;;;;1.70;1.70;;;;;;;-5.55;64.87;101197.72;6028505;29;20240;-76
2021/12/27 02:13:16;;;;;;;1.50;1.50;;;;;;;-5.70;64.40;101193.69;6027789;29;20269;-76
2021/12/27 02:16:22;;;;;;;2.00;1.90;;;;;;;-5.33;63.38;101193.06;6028298;29;20203;-76
2021/12/27 02:19:26;;;;;;;2.43;2.20;;;;;;;-5.30;62.93;101203.50;6028105;29;20195;-76
2021/12/27 02:22:35;;;;;;;2.00;1.90;;;;;;;-5.42;63.79;101220.63;6027976;29;20195;-76
2021/12/27 02:25:40;;;;;;;1.83;1.77;;;;;;;-5.49;63.75;101219.44;6026606;29;20525;-76
2021/12/27 02:28:45;;;;;;;1.87;1.87;;;;;;;-5.31;64.09;101207.16;6027266;29;20518;-75
2021/12/27 02:31:51;;;;;;;1.67;1.57;;;;;;;-5.31;63.67;101217.88;6026731;29;20201;-75
2021/12/27 02:34:55;;;;;;;2.40;2.00;;;;;;;-5.61;63.53;101220.50;6027499;29;20306;-76
2021/12/27 02:38:02;;;;;;;2.23;2.13;;;;;;;-5.47;64.14;101228.22;6027408;29;20198;-76
2021/12/27 02:41:08;;;;;;;1.63;1.63;;;;;;;-5.40;63.81;101228.53;6027655;29;20195;-75
2021/12/27 02:44:12;;;;;;;2.37;2.27;;;;;;;-5.42;64.02;101223.31;6026357;29;20486;-76
2021/12/27 02:47:17;;;;;;;2.23;2.10;;;;;;;-5.51;64.03;101220.56;6026215;29;20275;-75
2021/12/27 02:50:24;;;;;;;2.90;2.00;;;;;;;-5.48;64.70;101220.28;6026172;29;20392;-76
2021/12/27 02:53:30;;;;;;;2.40;2.20;;;;;;;-5.42;63.49;101231.34;6027282;29;20201;-75
2021/12/27 02:56:36;;;;;;;1.73;1.73;;;;;;;-5.40;64.04;101232.06;6027273;29;20201;-76
2021/12/27 02:59:40;;;;;;;1.90;1.90;;;;;;;-5.51;65.00;101216.06;6027169;29;20202;-76
2021/12/27 03:02:47;;;;;;;2.70;1.93;;;;;;;-5.44;64.80;101217.22;6026254;29;20202;-76
2021/12/27 03:05:52;;;;;;;2.93;1.83;;;;;;;-5.41;65.02;101222.31;6026329;29;20219;-76
2021/12/27 03:08:58;;;;;;;1.70;1.70;;;;;;;-5.55;65.46;101229.81;6026539;29;20214;-76
2021/12/27 03:12:02;;;;;;;2.03;1.83;;;;;;;-5.44;64.91;101222.56;6026724;29;20200;-76
2021/12/27 03:15:09;;;;;;;1.90;1.90;;;;;;;-5.67;64.60;101226.34;6026848;29;20269;-76
2021/12/27 03:18:22;;;;;;;1.80;1.80;;;;;;;-5.52;64.86;101219.72;6025519;29;20198;-76
2021/12/27 03:21:28;;;;;;;1.97;1.87;;;;;;;-5.58;65.51;101217.56;6025764;29;20195;-76
2021/12/27 03:24:33;;;;;;;2.27;2.07;;;;;;;-5.45;64.72;101220.91;6026607;29;20195;-75
2021/12/27 03:27:38;;;;;;;2.00;1.90;;;;;;;-5.77;65.62;101225.44;6025299;29;20417;-76
2021/12/27 03:30:43;;;;;;;2.00;2.00;;;;;;;-5.59;65.36;101213.19;6009811;29;20460;-76
2021/12/27 03:33:47;;;;;;;2.10;2.10;;;;;;;-5.44;64.93;101217.22;6026060;29;20239;-76
2021/12/27 03:36:52;;;;;;;1.90;1.80;;;;;;;-5.47;64.36;101222.84;6026332;29;20199;-77
2021/12/27 03:39:57;;;;;;;1.57;1.57;;;;;;;-5.25;63.94;101216.50;6026049;29;20194;-76
2021/12/27 03:43:02;;;;;;;2.10;2.10;;;;;;;-5.31;64.03;101228.56;6025711;29;20243;-76
2021/12/27 03:46:07;;;;;;;1.60;1.50;;;;;;;-5.54;64.15;101232.38;6025369;29;20360;-76
2021/12/27 03:49:11;;;;;;;1.93;1.90;;;;;;;-5.41;64.28;101251.75;6025997;29;20198;-76
2021/12/27 03:52:16;;;;;;;1.40;1.40;;;;;;;-5.52;64.19;101238.47;6025213;29;20449;-76
2021/12/27 03:55:22;;;;;;;1.70;1.70;;;;;;;-5.57;64.07;101238.00;6024782;29;20566;-75
2021/12/27 03:58:30;;;;;;;2.00;1.90;;;;;;;-5.29;63.70;101249.88;6025968;29;20195;-75
2021/12/27 04:01:34;;;;;;;4.13;2.40;;;;;;;-5.58;64.40;101236.28;6024640;29;20561;-76
2021/12/27 04:04:39;;;;;;;1.73;1.73;;;;;;;-5.57;63.98;101248.69;6024650;29;20195;-76
2021/12/27 04:07:45;;;;;;;1.90;1.90;;;;;;;-5.44;63.86;101252.00;6025803;29;20255;-76
2021/12/27 04:10:51;;;;;;;1.80;1.80;;;;;;;-5.32;63.30;101247.47;6025398;29;20241;-76
2021/12/27 04:13:57;;;;;;;2.07;1.93;;;;;;;-5.76;64.24;101245.84;6024817;29;20241;-75
2021/12/27 04:17:01;;;;;;;3.20;1.70;;;;;;;-5.89;64.18;101245.19;6025383;29;20285;-75
2021/12/27 04:20:07;;;;;;;2.00;1.90;;;;;;;-5.49;63.53;101246.19;6024424;29;20194;-76
2021/12/27 04:23:15;;;;;;;1.53;1.47;;;;;;;-5.56;62.58;101238.81;6024967;29;20216;-75
2021/12/27 04:26:22;;;;;;;1.90;1.90;;;;;;;-5.78;64.42;101237.13;6025556;29;20217;-76
2021/12/27 04:29:26;;;;;;;2.07;2.03;;;;;;;-5.70;63.67;101242.69;6025564;29;20225;-76
2021/12/27 04:32:31;;;;;;;2.13;2.00;;;;;;;-5.79;63.66;101232.72;6024252;29;20452;-76
2021/12/27 04:35:36;;;;;;;1.93;1.93;;;;;;;-5.67;63.56;101247.75;6025446;29;20194;-76
2021/12/27 04:38:42;;;;;;;2.00;2.00;;;;;;;-5.75;63.39;101239.53;6024279;29;20210;-76
2021/12/27 04:41:50;;;;;;;1.97;1.97;;;;;;;-5.62;62.90;101245.56;6024181;29;20522;-76
2021/12/27 04:44:54;;;;;;;1.77;1.67;;;;;;;-5.82;63.39;101242.88;6024074;29;20420;-76
2021/12/27 04:48:01;;;;;;;2.10;2.00;;;;;;;-5.76;63.11;101237.84;6024872;29;20489;-76
2021/12/27 04:51:05;;;;;;;1.80;1.70;;;;;;;-5.76;62.95;101245.84;6025377;29;20195;-75
2021/12/27 04:54:10;;;;;;;3.33;2.10;;;;;;;-5.78;64.70;101263.88;6025317;29;20194;-76
2021/12/27 04:57:16;;;;;;;1.70;1.70;;;;;;;-5.67;62.81;101255.78;6028698;29;20206;-76
2021/12/27 05:00:21;;;;;;;1.73;1.53;;;;;;;-5.54;63.05;101264.47;6029836;29;20198;-76
2021/12/27 05:03:26;;;;;;;2.13;2.13;;;;;;;-5.58;64.00;101273.75;6028453;29;20261;-76
2021/12/27 05:06:30;;;;;;;2.47;2.27;;;;;;;-5.47;63.36;101270.19;6028301;29;20328;-76
2021/12/27 05:09:35;;;;;;;1.70;1.70;;;;;;;-5.54;63.26;101261.78;6029379;29;20210;-76
2021/12/27 05:12:41;;;;;;;2.07;1.90;;;;;;;-5.21;63.83;101266.13;6029188;29;20245;-76
2021/12/27 05:15:45;;;;;;;1.80;1.70;;;;;;;-5.29;64.17;101269.47;6028167;29;20486;-76
2021/12/27 05:18:49;;;;;;;1.97;1.87;;;;;;;-5.15;64.13;101270.94;6029403;29;20331;-76
2021/12/27 05:21:54;;;;;;;2.07;1.90;;;;;;;-4.97;64.24;101263.16;6029290;29;20227;-76
2021/12/27 05:24:58;;;;;;;1.47;1.47;;;;;;;-5.04;64.23;101270.03;6028715;29;20194;-76
2021/12/27 05:28:04;;;;;;;4.83;1.97;;;;;;;-5.09;64.38;101274.94;6028788;29;20219;-76
2021/12/27 05:31:08;;;;;;;1.97;1.97;;;;;;;-5.00;65.36;101266.13;6027871;29;20531;-76
2021/12/27 05:34:14;;;;;;;2.23;2.17;;;;;;;-5.30;66.50;101273.13;6028156;29;20241;-76
2021/12/27 05:37:19;;;;;;;1.90;1.90;;;;;;;-5.04;66.45;101267.34;6027673;29;20288;-76
2021/12/27 05:40:24;;;;;;;2.23;2.13;;;;;;;-5.13;66.34;101278.88;6028397;29;20193;-76
2021/12/27 05:43:30;;;;;;;2.20;2.13;;;;;;;-4.95;66.10;101277.28;6028893;29;20200;-76
2021/12/27 05:46:34;;;;;;;5.33;2.23;;;;;;;-5.01;65.52;101267.94;6028313;29;20229;-76
2021/12/27 05:49:39;;;;;;;3.03;2.60;;;;;;;-5.19;66.14;101268.69;6027475;29;20419;-76
2021/12/27 05:52:43;;;;;;;1.97;1.97;;;;;;;-4.85;64.80;101273.66;6028623;29;20192;-76
2021/12/27 05:55:48;;;;;;;2.93;2.40;;;;;;;-5.00;65.01;101269.63;6027664;29;20194;-76
2021/12/27 05:58:54;;;;;;;2.33;2.33;;;;;;;-4.81;64.44;101271.56;6028491;29;20199;-76
2021/12/27 06:01:58;;;;;;;2.23;2.13;;;;;;;-4.97;65.71;101273.88;6027147;29;20272;-76
2021/12/27 06:05:03;;;;;;;2.60;2.40;;;;;;;-4.95;64.47;101279.97;6027624;29;20201;-76
2021/12/27 06:08:11;;;;;;;2.00;2.00;;;;;;;-4.83;64.77;101276.22;6027673;29;20266;-76
2021/12/27 06:11:15;;;;;;;3.13;2.73;;;;;;;-4.84;64.72;101279.88;6027011;29;20418;-76
2021/12/27 06:14:21;;;;;;;2.33;2.27;;;;;;;-5.00;65.76;101280.34;6028137;29;20246;-76
2021/12/27 06:17:25;;;;;;;2.70;2.60;;;;;;;-5.03;64.65;101285.13;6028128;29;20246;-76
2021/12/27 06:20:30;;;;;;;2.40;2.30;;;;;;;-5.11;66.42;101276.91;6026817;29;20195;-76
2021/12/27 06:23:34;;;;;;;2.43;2.33;;;;;;;-5.12;64.15;101296.63;6027537;29;20201;-76
2021/12/27 06:26:38;;;;;;;2.20;2.20;;;;;;;-4.98;64.17;101277.56;6027765;29;20203;-76
2021/12/27 06:29:43;;;;;;;2.80;2.67;;;;;;;-5.01;64.13;101294.72;6027048;29;20281;-76
2021/12/27 06:32:48;;;;;;;2.30;2.20;;;;;;;-4.98;64.47;101283.75;6026567;29;20449;-76
2021/12/27 06:35:53;;;;;;;5.90;2.60;;;;;;;-5.02;63.96;101287.66;6027374;29;20202;-76
2021/12/27 06:38:57;;;;;;;2.20;2.10;;;;;;;-5.01;63.92;101292.06;6027793;29;20202;-76
2021/12/27 06:42:01;;;;;;;1.97;1.97;;;;;;;-5.27;66.03;101294.28;6027385;29;20258;-76
2021/12/27 06:45:10;;;;;;;3.17;2.20;;;;;;;-4.96;65.81;101302.38;6026759;29;20194;-76
2021/12/27 06:48:16;;;;;;;3.17;2.30;;;;;;;-4.98;64.32;101301.66;6027045;29;20222;-76
2021/12/27 06:51:20;;;;;;;2.13;2.13;;;;;;;-4.86;63.87;101297.91;6027127;29;20202;-77
2021/12/27 06:54:25;;;;;;;2.47;2.27;;;;;;;-5.08;64.86;101303.44;6027195;29;20195;-76
2021/12/27 06:57:31;;;;;;;2.03;1.93;;;;;;;-4.89;65.23;101308.88;6026313;29;20258;-76
2021/12/27 07:00:37;;;;;;;2.60;2.40;;;;;;;-4.83;63.25;101308.38;6026823;29;20416;-76
2021/12/27 07:03:42;;;;;;;2.67;2.47;;;;;;;-4.84;64.30;101312.00;6026114;29;20280;-76
2021/12/27 07:06:46;;;;;;;3.50;2.30;;;;;;;-4.61;64.45;101313.56;6025711;29;20195;-76
2021/12/27 07:09:51;;;;;;;2.60;2.10;;;;;;;-4.57;64.21;101320.34;6026940;29;20248;-76
2021/12/27 07:12:55;;;;;;;2.30;2.20;;;;;;;-4.60;65.93;101320.63;6026253;29;20261;-76
2021/12/27 07:16:01;;;;;;;2.47;2.37;;;;;;;-4.46;64.86;101327.47;6025825;29;20195;-76
2021/12/27 07:19:06;;;;;;;2.63;2.53;;;;;;;-4.40;64.75;101327.75;6025717;29;20265;-75
2021/12/27 07:22:12;;;;;;;2.47;2.37;;;;;;;-4.40;65.45;101332.28;6025339;29;20195;-75
2021/12/27 07:25:17;;;;;;;2.60;2.40;;;;;;;-4.34;65.75;101332.59;6026795;29;20227;-75
2021/12/27 07:28:22;;;;;;;2.20;2.10;;;;;;;-4.47;65.91;101337.34;6026108;29;20226;-75
2021/12/27 07:31:27;;;;;;;2.47;2.43;;;;;;;-4.16;65.45;101341.69;6026110;29;20262;-75
2021/12/27 07:34:32;;;;;;;2.50;2.40;;;;;;;-4.08;66.10;101339.16;6025191;29;20277;-75
2021/12/27 07:37:36;;;;;;;2.20;2.10;;;;;;;-4.04;66.95;101335.22;6025001;29;20207;-74
2021/12/27 07:40:40;;;;;;;3.10;2.90;;;;;;;-3.72;65.26;101339.53;6025386;29;20205;-75
2021/12/27 07:43:45;;;;;;;2.63;2.60;;;;;;;-3.81;67.24;101351.09;6026166;29;20207;-75
2021/12/27 07:46:51;;;;;;;2.03;2.03;;;;;;;-3.83;67.15;101347.72;6026132;29;20192;-75
2021/12/27 07:49:56;;;;;;;2.83;2.67;;;;;;;-3.75;66.48;101355.94;6026182;29;20251;-75
2021/12/27 07:53:01;;;;;;;2.60;2.47;;;;;;;-3.47;66.74;101349.75;6024740;29;20214;-75
2021/12/27 07:56:08;;;;;;;2.57;2.37;;;;;;;-3.61;66.76;101350.13;6026107;29;20227;-75
2021/12/27 07:59:14;;;;;;;4.40;3.37;;;;;;;-3.39;66.41;101347.22;6024713;29;20196;-75
2021/12/27 08:02:20;;;;;;;2.80;2.70;;;;;;;-3.29;66.63;101353.44;6024541;29;20483;-75
2021/12/27 08:05:24;;;;;;;3.13;2.93;;;;;;;-3.34;67.35;101361.06;6025891;29;20259;-75
2021/12/27 08:08:29;;;;;;;2.93;2.80;;;;;;;-3.32;67.05;101360.91;6025175;29;20245;-76
2021/12/27 08:11:34;;;;;;;2.83;2.73;;;;;;;-3.29;67.55;101358.81;6025464;29;20204;-75
2021/12/27 08:14:38;;;;;;;4.43;3.20;;;;;;;-3.36;67.88;101368.41;6024852;29;20239;-76
2021/12/27 08:17:43;;;;;;;2.30;2.20;;;;;;;-3.39;68.33;101357.97;6025690;29;20271;-76
2021/12/27 08:20:48;;;;;;;2.60;2.50;;;;;;;-3.04;67.55;101357.38;6025675;29;20200;-75
2021/12/27 08:23:53;;;;;;;2.87;2.50;;;;;;;-3.04;67.65;101362.75;6024246;29;20191;-76
2021/12/27 08:27:02;;;;;;;2.87;2.70;;;;;;;-3.22;68.39;101373.34;6024157;29;20383;-75
2021/12/27 08:30:08;;;;;;;2.87;2.67;;;;;;;-2.94;67.80;101364.44;6024401;29;20222;-76
2021/12/27 08:33:18;;;;;;;3.17;2.40;;;;;;;-2.88;67.39;101361.19;6024423;29;20193;-75
2021/12/27 08:36:22;;;;;;;3.00;2.80;;;;;;;-2.76;67.10;101357.34;6024673;29;20193;-75
2021/12/27 08:39:27;;;;;;;2.37;2.37;;;;;;;-2.53;66.45;101346.25;6024215;29;20200;-75
2021/12/27 08:42:31;;;;;;;2.67;2.57;;;;;;;-2.62;66.75;101357.88;6024138;29;20501;-76
2021/12/27 08:45:36;;;;;;;2.90;2.80;;;;;;;-2.63;66.76;101372.31;6025285;29;20193;-75
2021/12/27 08:48:43;;;;;;;2.80;2.67;;;;;;;-2.78;67.42;101364.72;6024968;29;20223;-75
2021/12/27 08:51:47;;;;;;;3.00;2.90;;;;;;;-2.51;66.56;101371.16;6024957;29;20196;-76
2021/12/27 08:54:51;;;;;;;3.30;3.20;;;;;;;-2.77;67.47;101373.63;6025300;29;20258;-76
2021/12/27 08:57:55;;;;;;;3.73;3.53;;;;;;;-2.47;66.36;101381.47;6025116;29;20250;-76
2021/12/27 09:01:06;;;;;;;3.03;2.93;;;;;;;-2.46;66.43;101379.66;6025187;29;20200;-75
2021/12/27 09:04:13;;;;;;;3.17;3.07;;;;;;;-2.19;65.63;101382.38;6023807;29;20216;-75
2021/12/27 09:07:18;;;;;;;2.70;2.60;;;;;;;-2.55;67.06;101392.09;6023819;29;20508;-75
2021/12/27 09:10:22;;;;;;;2.60;2.50;;;;;;;-2.11;65.62;101395.94;6024891;29;20232;-75
2021/12/27 09:13:28;;;;;;;3.13;3.03;;;;;;;-1.98;65.00;101401.00;6023351;29;20408;-75
2021/12/27 09:16:32;;;;;;;6.23;3.07;;;;;;;-2.25;66.08;101399.94;6024502;29;20199;-75
2021/12/27 09:19:42;;;;;;;2.80;2.60;;;;;;;-1.92;64.89;101400.41;6023649;29;20228;-75
2021/12/27 09:22:47;;;;;;;2.90;2.80;;;;;;;-2.02;64.79;101400.44;6023610;29;20216;-75
2021/12/27 09:25:52;;;;;;;2.73;2.63;;;;;;;-2.38;66.00;101409.31;6023813;29;20255;-76
2021/12/27 09:28:57;;;;;;;3.03;2.93;;;;;;;-1.87;64.78;101415.09;6023599;29;20468;-75
2021/12/27 09:32:02;;;;;;;2.77;2.57;;;;;;;-2.47;66.95;101426.34;6007288;29;20275;-75
2021/12/27 09:35:08;;;;;;;2.80;2.70;;;;;;;-2.04;65.27;101423.94;6023472;29;20399;-75
2021/12/27 09:38:16;;;;;;;2.73;2.60;;;;;;;-1.98;64.74;101428.75;6023466;29;20378;-75
2021/12/27 09:41:21;;;;;;;3.73;2.63;;;;;;;-2.42;66.21;101441.06;6024865;29;20197;-75
2021/12/27 09:44:25;;;;;;;2.33;2.33;;;;;;;-1.97;65.32;101438.50;6027639;29;20273;-75
2021/12/27 09:47:29;;;;;;;2.37;2.37;;;;;;;-1.62;63.67;101435.09;6028729;29;20305;-76
2021/12/27 09:50:56;;;;;;;2.30;2.30;;;;;;;-1.48;63.44;101443.53;6028227;29;20229;-75
2021/12/27 09:54:00;;;;;;;2.70;2.70;;;;;;;-1.81;64.33;101444.13;6027577;29;20506;-75
2021/12/27 09:57:06;;;;;;;2.87;2.63;;;;;;;-2.02;65.30;101446.19;6028010;29;20194;-76
2021/12/27 10:00:13;;;;;;;2.33;2.27;;;;;;;-1.99;65.76;101440.50;6027326;29;20563;-75
2021/12/27 10:03:23;;;;;;;2.97;2.77;;;;;;;-2.05;65.14;101449.19;6027268;29;20192;-76
2021/12/27 10:06:30;;;;;;;2.63;2.53;;;;;;;-1.67;63.85;101449.03;6028073;29;20193;-76
2021/12/27 10:09:35;;;;;;;2.80;2.70;;;;;;;-1.79;64.79;101434.03;6028509;29;20268;-76
2021/12/27 10:12:39;;;;;;;2.60;2.50;;;;;;;-1.49;63.53;101441.84;6028554;29;20234;-76
2021/12/27 10:15:46;;;;;;;2.73;2.63;;;;;;;-1.93;64.69;101431.84;6027138;29;20358;-76
2021/12/27 10:18:55;;;;;;;3.20;3.00;;;;;;;-1.67;63.92;101438.25;6028142;29;20270;-75
2021/12/27 10:22:00;;;;;;;2.53;2.43;;;;;;;-1.72;63.90;101440.56;6027887;29;20352;-76
2021/12/27 10:25:09;;;;;;;2.70;2.50;;;;;;;-1.82;64.34;101439.75;6028047;29;20194;-77
2021/12/27 10:28:15;;;;;;;2.77;2.67;;;;;;;-1.51;63.12;101451.91;6026487;29;20422;-76
2021/12/27 10:31:19;;;;;;;2.40;2.40;;;;;;;-2.20;65.04;101445.25;6026767;29;20222;-77
2021/12/27 10:34:26;;;;;;;2.80;2.70;;;;;;;-1.50;62.75;101445.53;6028419;29;20194;-75
2021/12/27 10:37:32;;;;;;;3.20;3.00;;;;;;;-1.73;63.51;101440.69;6027616;29;20200;-74
2021/12/27 10:40:36;;;;;;;2.90;2.70;;;;;;;-1.43;62.93;101444.94;6027225;29;20264;-75
2021/12/27 10:43:42;;;;;;;2.93;2.73;;;;;;;-1.31;62.38;101439.19;6027156;29;20200;-75
2021/12/27 10:46:47;;;;;;;2.90;2.80;;;;;;;-1.75;63.52;101446.22;6026145;29;20499;-75
2021/12/27 10:49:51;;;;;;;2.50;2.50;;;;;;;-1.67;62.86;101449.03;6027398;29;20481;-74
2021/12/27 10:52:59;;;;;;;6.53;2.93;;;;;;;-1.55;62.63;101461.28;6025326;29;20262;-74
2021/12/27 10:56:04;;;;;;;2.70;2.53;;;;;;;-1.56;62.77;101467.66;6026894;29;20194;-75
2021/12/27 10:59:16;;;;;;;5.27;3.03;;;;;;;-2.07;64.58;101467.31;6026300;29;20269;-75
2021/12/27 11:02:20;;;;;;;3.00;2.73;;;;;;;-1.57;63.06;101465.13;6025808;29;20197;-75
2021/12/27 11:05:27;;;;;;;2.40;2.40;;;;;;;-1.48;62.82;101475.84;6025873;29;20193;-75
2021/12/27 11:08:34;;;;;;;2.73;2.63;;;;;;;-1.68;63.02;101463.47;6025873;29;20276;-75
2021/12/27 11:11:39;;;;;;;2.53;2.43;;;;;;;-1.60;62.41;101466.28;6026732;29;20223;-75
2021/12/27 11:14:44;;;;;;;3.30;3.00;;;;;;;-1.89;63.31;101476.31;6027220;29;20244;-75
2021/12/27 11:17:48;;;;;;;2.93;2.83;;;;;;;-1.42;62.06;101473.56;6026384;29;20220;-75
2021/12/27 11:20:56;;;;;;;2.40;2.30;;;;;;;-1.30;61.63;101472.34;6026759;29;20202;-75
2021/12/27 11:24:03;;;;;;;2.50;2.40;;;;;;;-1.46;61.80;101468.47;6025423;29;20195;-75
2021/12/27 11:27:11;;;;;;;2.63;2.53;;;;;;;-1.32;62.29;101463.56;6026600;29;20257;-75
2021/12/27 11:30:22;;;;;;;2.70;2.60;;;;;;;-1.41;62.37;101467.19;6027019;29;20228;-77
2021/12/27 11:33:28;;;;;;;2.60;2.50;;;;;;;-1.73;63.08;101465.75;6027211;29;20481;-76
2021/12/27 11:36:34;;;;;;;2.73;2.63;;;;;;;-1.42;62.76;101474.41;6027918;29;20194;-76
2021/12/27 11:39:42;;;;;;;2.97;2.30;;;;;;;-1.41;62.06;101475.25;6026444;29;20194;-76
2021/12/27 11:42:55;;;;;;;2.93;2.83;;;;;;;-1.67;62.88;101475.97;6025128;29;20381;-76
2021/12/27 11:46:01;;;;;;;2.10;2.10;;;;;;;-1.97;63.10;101473.50;6026758;29;20194;-75
2021/12/27 11:49:06;;;;;;;2.47;2.37;;;;;;;-2.01;63.85;101482.03;6025487;29;20195;-76
2021/12/27 11:52:24;;;;;;;2.33;2.23;;;;;;;-1.96;63.55;101480.59;6025859;29;20229;-76
2021/12/27 11:55:39;;;;;;;2.30;2.30;;;;;;;-2.07;63.80;101478.06;6025755;29;20194;-76
2021/12/27 11:58:45;;;;;;;2.30;2.30;;;;;;;-1.69;63.17;101488.69;6025789;29;20290;-76
2021/12/27 12:01:51;;;;;;;2.50;2.50;;;;;;;-1.94;63.23;101489.34;6025605;29;20328;-76
2021/12/27 12:04:57;;;;;;;1.73;1.73;;;;;;;-1.62;62.46;101499.75;6024424;29;20382;-76
2021/12/27 12:08:02;;;;;;;2.43;2.23;;;;;;;-1.56;62.54;101489.22;6024336;29;20534;-76
2021/12/27 12:11:13;;;;;;;2.03;2.03;;;;;;;-1.91;63.25;101486.38;6024378;29;20221;-76
2021/12/27 12:14:25;;;;;;;2.70;2.60;;;;;;;-1.68;62.56;101493.09;6025128;29;20246;-76
2021/12/27 12:17:38;;;;;;;2.30;2.20;;;;;;;-1.36;61.90;101483.75;6025234;29;20205;-76
2021/12/27 12:20:42;;;;;;;2.37;2.30;;;;;;;-1.29;61.36;101490.22;6025140;29;20205;-76
2021/12/27 12:23:55;;;;;;;1.80;1.80;;;;;;;-1.32;61.54;101479.72;6024265;29;20202;-75
2021/12/27 12:27:03;;;;;;;2.33;2.33;;;;;;;-1.51;62.24;101492.31;6025550;29;20221;-76
2021/12/27 12:30:13;;;;;;;2.73;2.63;;;;;;;-1.50;62.30;101488.63;6025086;29;20309;-75
2021/12/27 12:33:19;;;;;;;2.90;2.80;;;;;;;-1.18;61.49;101477.41;6025706;29;20257;-76
2021/12/27 12:36:24;;;;;;;2.40;2.30;;;;;;;-1.75;62.74;101483.94;6024081;29;20202;-76
2021/12/27 12:39:37;;;;;;;1.80;1.80;;;;;;;-1.74;62.67;101493.69;6024041;29;20517;-76
2021/12/27 12:42:43;;;;;;;2.20;2.03;;;;;;;-1.85;62.82;101499.25;6024968;29;20306;-76
2021/12/27 12:45:47;;;;;;;3.03;2.33;;;;;;;-1.49;61.69;101495.72;6023901;29;20253;-75
2021/12/27 12:49:00;;;;;;;2.30;2.20;;;;;;;-1.37;61.73;101503.59;6023863;29;20223;-75
2021/12/27 12:52:06;;;;;;;2.10;2.10;;;;;;;-1.03;60.50;101494.75;6023757;29;20381;-75
2021/12/27 12:55:13;;;;;;;2.50;2.50;;;;;;;-1.62;62.67;101500.59;6024883;29;20259;-76
2021/12/27 12:58:18;;;;;;;3.17;2.13;;;;;;;-1.55;62.07;101501.69;6025062;29;20194;-76
2021/12/27 13:01:23;;;;;;;2.70;2.60;;;;;;;-2.07;63.46;101504.97;6025039;29;20199;-75
2021/12/27 13:04:40;;;;;;;2.33;2.23;;;;;;;-1.50;62.58;101504.78;6024743;29;20202;-76
2021/12/27 13:07:46;;;;;;;2.10;2.10;;;;;;;-1.56;62.07;101499.97;6023798;29;20194;-76
2021/12/27 13:10:56;;;;;;;2.80;2.70;;;;;;;-1.42;61.90;101511.25;6024554;29;20238;-76
2021/12/27 13:14:02;;;;;;;3.07;2.60;;;;;;;-1.49;62.45;101506.50;6024425;29;20249;-76
2021/12/27 13:17:12;;;;;;;2.60;2.50;;;;;;;-1.28;61.71;101500.84;6025683;29;20265;-76
2021/12/27 13:20:17;;;;;;;2.07;2.07;;;;;;;-1.34;61.63;101497.91;6029364;29;20227;-76
2021/12/27 13:23:23;;;;;;;3.03;2.93;;;;;;;-1.56;62.07;101505.38;6028594;29;20211;-75
2021/12/27 13:26:27;;;;;;;2.30;2.30;;;;;;;-1.73;62.64;101502.59;6027998;29;20195;-75
2021/12/27 13:29:33;;;;;;;3.03;2.20;;;;;;;-1.65;62.30;101511.66;6027885;29;20384;-77
2021/12/27 13:32:37;;;;;;;2.07;1.97;;;;;;;-1.71;62.14;101528.41;6028545;29;20293;-76
2021/12/27 13:35:42;;;;;;;2.30;2.30;;;;;;;-1.62;62.37;101522.13;6027838;29;20282;-76
2021/12/27 13:39:00;;;;;;;2.33;2.23;;;;;;;-1.70;62.21;101527.41;6027725;29;20595;-75
2021/12/27 13:42:07;;;;;;;2.60;2.50;;;;;;;-1.88;62.75;101523.78;6028593;29;20266;-76
2021/12/27 13:45:17;;;;;;;2.50;2.40;;;;;;;-1.66;62.07;101520.72;6028764;29;20194;-76
2021/12/27 13:48:32;;;;;;;2.33;2.33;;;;;;;-1.63;62.00;101515.03;6029486;29;20230;-77
2021/12/27 13:51:37;;;;;;;2.30;2.30;;;;;;;-1.83;62.29;101518.81;6030310;29;20350;-77
2021/12/27 13:54:45;;;;;;;2.33;2.23;;;;;;;-1.41;61.61;101523.75;6029073;29;20199;-77
2021/12/27 13:57:49;;;;;;;2.37;2.37;;;;;;;-1.54;61.87;101530.34;6028452;29;20267;-76
2021/12/27 14:00:55;;;;;;;3.50;2.43;;;;;;;-1.52;61.99;101527.47;6027292;29;20434;-77
2021/12/27 14:04:13;;;;;;;5.60;2.33;;;;;;;-1.97;63.00;101535.41;6027278;29;20592;-76
2021/12/27 14:07:29;;;;;;;2.50;2.33;;;;;;;-1.84;63.13;101527.88;6028407;29;20220;-75
2021/12/27 14:10:33;;;;;;;2.77;2.67;;;;;;;-1.84;62.89;101546.72;6028220;29;20216;-74
2021/12/27 14:14:01;;;;;;;2.73;2.63;;;;;;;-1.50;61.87;101553.28;6026674;29;20560;-75
2021/12/27 14:17:10;;;;;;;2.10;2.10;;;;;;;-1.55;62.48;101544.78;6028189;29;20201;-75
2021/12/27 14:20:16;;;;;;;2.70;2.50;;;;;;;-1.52;62.02;101554.41;6026894;29;20194;-76
2021/12/27 14:23:23;;;;;;;2.17;2.17;;;;;;;-2.13;63.91;101559.38;6028122;29;20205;-74
2021/12/27 14:26:27;;;;;;;2.73;2.63;;;;;;;-1.97;63.91;101551.56;6027720;29;20243;-76